createdAt,value
2022-12-11T00:00:20.158Z,-11.68
2022-12-11T00:03:23.290Z,-11.70
2022-12-11T00:06:26.438Z,-11.69
2022-12-11T00:09:29.876Z,-11.69
2022-12-11T00:12:33.048Z,-11.74
2022-12-11T00:15:36.127Z,-11.74
2022-12-11T00:18:39.491Z,-11.76
2022-12-11T00:21:42.997Z,-11.80
2022-12-11T00:24:46.076Z,-11.81
2022-12-11T00:27:49.141Z,-11.83
2022-12-11T00:30:55.100Z,-11.82
2022-12-11T00:33:58.436Z,-11.80
2022-12-11T00:37:01.541Z,-11.75
2022-12-11T00:40:05.243Z,-11.75
2022-12-11T00:43:08.427Z,-11.76
2022-12-11T00:46:12.603Z,-11.70
2022-12-11T00:49:15.679Z,-11.71
2022-12-11T00:52:18.765Z,-11.69
2022-12-11T00:55:21.904Z,-11.76
2022-12-11T00:58:25.046Z,-11.72
2022-12-11T01:01:28.147Z,-11.67
2022-12-11T01:04:31.391Z,-11.76
2022-12-11T01:07:34.533Z,-11.80
2022-12-11T01:10:37.719Z,-11.82
2022-12-11T01:13:41.850Z,-11.79
2022-12-11T01:16:45.128Z,-11.74
2022-12-11T01:19:48.379Z,-11.74
2022-12-11T01:22:58.942Z,-11.66
2022-12-11T01:26:16.106Z,-11.66
2022-12-11T01:29:19.234Z,-11.75
2022-12-11T01:32:22.407Z,-11.73
2022-12-11T01:35:25.616Z,-11.61
2022-12-11T01:38:28.690Z,-11.59
2022-12-11T01:41:31.841Z,-11.65
2022-12-11T01:44:34.871Z,-11.66
2022-12-11T01:47:37.966Z,-11.62
2022-12-11T01:50:45.942Z,-11.63
2022-12-11T01:53:55.072Z,-11.72
2022-12-11T01:57:03.764Z,-11.70
2022-12-11T02:00:07.416Z,-11.77
2022-12-11T02:03:15.765Z,-11.67
2022-12-11T02:06:47.411Z,-11.62
2022-12-11T02:09:50.985Z,-11.62
2022-12-11T02:13:13.906Z,-11.62
2022-12-11T02:16:33.946Z,-11.54
2022-12-11T02:19:56.306Z,-11.49
2022-12-11T02:23:05.625Z,-11.41
2022-12-11T02:26:34.944Z,-11.27
2022-12-11T02:29:51.838Z,-11.19
2022-12-11T02:32:57.678Z,-11.14
2022-12-11T02:36:04.058Z,-11.05
2022-12-11T02:39:09.872Z,-10.97
2022-12-11T02:42:14.766Z,-10.92
2022-12-11T02:45:20.277Z,-10.84
2022-12-11T02:48:25.054Z,-10.80
2022-12-11T02:51:33.059Z,-10.75
2022-12-11T02:54:40.101Z,-10.63
2022-12-11T02:57:53.722Z,-10.54
2022-12-11T03:00:56.916Z,-10.43
2022-12-11T03:04:00.197Z,-10.34
2022-12-11T03:07:17.936Z,-10.25
2022-12-11T03:10:21.316Z,-10.17
2022-12-11T03:13:24.994Z,-10.11
2022-12-11T03:16:37.025Z,-10.01
2022-12-11T03:19:53.537Z,-9.92
2022-12-11T03:23:10.246Z,-9.84
2022-12-11T03:26:17.451Z,-9.74
2022-12-11T03:29:41.998Z,-9.58
2022-12-11T03:32:58.746Z,-9.48
2022-12-11T03:36:15.365Z,-9.44
2022-12-11T03:39:28.290Z,-9.36
2022-12-11T03:42:32.735Z,-9.28
2022-12-11T03:45:38.042Z,-9.21
2022-12-11T03:48:45.354Z,-9.15
2022-12-11T03:51:51.143Z,-9.12
2022-12-11T03:54:58.883Z,-9.00
2022-12-11T03:58:02.106Z,-8.90
2022-12-11T04:01:09.583Z,-8.84
2022-12-11T04:04:12.695Z,-8.79
2022-12-11T04:07:15.896Z,-8.75
2022-12-11T04:10:18.948Z,-8.69
2022-12-11T04:13:22.046Z,-8.62
2022-12-11T04:16:25.129Z,-8.57
2022-12-11T04:19:46.685Z,-8.49
2022-12-11T04:23:08.013Z,-8.37
2022-12-11T04:26:14.874Z,-8.27
2022-12-11T04:29:17.968Z,-8.27
2022-12-11T04:32:21.050Z,-8.27
2022-12-11T04:35:24.476Z,-8.18
2022-12-11T06:06:59.485Z,-7.70
2022-12-11T06:10:02.556Z,-7.77
2022-12-11T06:13:05.603Z,-7.80
2022-12-11T06:16:09.965Z,-7.86
2022-12-11T06:19:15.920Z,-7.87
2022-12-11T06:22:18.983Z,-7.94
2022-12-11T06:25:22.193Z,-7.98
2022-12-11T06:28:25.189Z,-8.03
2022-12-11T06:31:28.563Z,-8.06
2022-12-11T06:34:31.785Z,-8.08
2022-12-11T06:37:37.365Z,-8.12
2022-12-11T06:40:41.267Z,-8.16
2022-12-11T06:43:44.783Z,-8.19
2022-12-11T06:46:47.828Z,-8.23
2022-12-11T06:49:50.866Z,-8.25
2022-12-11T06:52:53.931Z,-8.28
2022-12-11T06:55:56.993Z,-8.31
2022-12-11T06:59:05.695Z,-8.31
2022-12-11T07:02:15.286Z,-8.34
2022-12-11T07:05:18.544Z,-8.36
2022-12-11T07:08:21.818Z,-8.37
2022-12-11T07:11:25.000Z,-8.41
2022-12-11T07:14:28.063Z,-8.42
2022-12-11T07:17:31.717Z,-8.44
2022-12-11T07:20:34.815Z,-8.49
2022-12-11T07:23:38.452Z,-8.54
2022-12-11T07:26:41.548Z,-8.58
2022-12-11T07:29:45.670Z,-8.63
2022-12-11T07:32:48.789Z,-8.71
2022-12-11T07:35:51.917Z,-8.78
2022-12-11T07:38:55.161Z,-8.87
2022-12-11T07:41:58.368Z,-8.83
2022-12-11T07:45:01.562Z,-8.79
2022-12-11T07:48:04.876Z,-8.76
2022-12-11T07:51:11.326Z,-8.77
2022-12-11T07:54:17.437Z,-8.77
2022-12-11T07:57:20.557Z,-8.92
2022-12-11T08:00:23.731Z,-9.04
2022-12-11T08:03:26.835Z,-9.11
2022-12-11T08:06:32.336Z,-9.21
2022-12-11T08:09:35.421Z,-9.42
2022-12-11T08:12:38.394Z,-9.50
2022-12-11T08:15:41.486Z,-9.51
2022-12-11T08:18:46.658Z,-9.59
2022-12-11T08:21:49.723Z,-9.66
2022-12-11T08:24:53.103Z,-9.79
2022-12-11T08:27:56.201Z,-9.96
2022-12-11T08:30:59.685Z,-10.06
2022-12-11T08:34:02.816Z,-10.05
2022-12-11T08:37:05.917Z,-9.96
2022-12-11T08:40:10.510Z,-9.87
2022-12-11T08:43:13.771Z,-10.01
2022-12-11T08:46:16.854Z,-10.20
2022-12-11T08:49:19.954Z,-10.29
2022-12-11T08:52:23.575Z,-10.32
2022-12-11T08:55:26.664Z,-10.35
2022-12-11T08:58:30.395Z,-10.43
2022-12-11T09:01:33.697Z,-10.45
2022-12-11T09:04:36.783Z,-10.44
2022-12-11T09:07:40.064Z,-10.50
2022-12-11T09:10:43.123Z,-10.53
2022-12-11T09:13:46.295Z,-10.55
2022-12-11T09:16:49.371Z,-10.54
2022-12-11T09:19:52.567Z,-10.36
2022-12-11T09:22:55.612Z,-10.11
2022-12-11T09:25:59.954Z,-10.04
2022-12-11T09:29:05.099Z,-10.20
2022-12-11T09:32:08.310Z,-10.32
2022-12-11T09:35:12.016Z,-10.20
2022-12-11T09:38:15.366Z,-10.01
2022-12-11T09:41:27.167Z,-10.06
2022-12-11T09:44:54.661Z,-10.19
2022-12-11T09:47:58.163Z,-10.32
2022-12-11T09:51:09.056Z,-10.45
2022-12-11T09:54:14.784Z,-10.50
2022-12-11T09:57:39.422Z,-10.44
2022-12-11T10:00:51.755Z,-10.39
2022-12-11T10:04:53.277Z,-10.19
2022-12-11T10:08:07.000Z,-9.93
2022-12-11T10:11:34.159Z,-9.78
2022-12-11T10:14:58.676Z,-9.69
2022-12-11T10:18:05.206Z,-9.70
2022-12-11T10:21:09.993Z,-9.89
2022-12-11T10:24:34.876Z,-9.86
2022-12-11T10:27:42.629Z,-9.87
2022-12-11T10:31:06.104Z,-10.01
2022-12-11T10:34:34.036Z,-9.94
2022-12-11T10:37:37.160Z,-9.90
2022-12-11T10:40:47.040Z,-9.85
2022-12-11T10:43:53.140Z,-9.81
2022-12-11T10:47:02.563Z,-9.74
2022-12-11T10:50:06.203Z,-9.70
2022-12-11T10:53:21.908Z,-9.64
2022-12-11T10:56:34.145Z,-9.65
2022-12-11T10:59:47.199Z,-9.66
2022-12-11T11:02:50.353Z,-9.69
2022-12-11T11:06:06.798Z,-9.71
2022-12-11T11:09:36.545Z,-9.75
2022-12-11T11:12:42.650Z,-9.80
2022-12-11T11:15:46.351Z,-9.83
2022-12-11T11:18:58.820Z,-9.89
2022-12-11T11:22:13.499Z,-9.95
2022-12-11T11:25:20.553Z,-9.99
2022-12-11T11:28:28.605Z,-9.99
2022-12-11T11:31:35.377Z,-10.00
2022-12-11T11:34:38.497Z,-9.98
2022-12-11T11:37:45.521Z,-9.95
2022-12-11T11:41:14.683Z,-9.91
2022-12-11T11:44:25.877Z,-9.91
2022-12-11T11:47:37.224Z,-9.91
2022-12-11T11:50:45.552Z,-9.96
2022-12-11T11:53:52.492Z,-9.98
2022-12-11T11:56:58.230Z,-9.99
2022-12-11T12:00:11.727Z,-10.05
2022-12-11T12:03:20.925Z,-10.11
2022-12-11T12:06:50.540Z,-10.10
2022-12-11T12:10:15.639Z,-10.08
2022-12-11T12:13:49.057Z,-10.10
2022-12-11T12:17:17.861Z,-10.13
2022-12-11T12:20:33.109Z,-10.17
2022-12-11T12:23:42.304Z,-10.22
2022-12-11T12:26:57.436Z,-10.24
2022-12-11T12:30:06.108Z,-10.24
2022-12-11T12:33:14.984Z,-10.25
2022-12-11T12:36:37.046Z,-10.28
2022-12-11T12:39:43.250Z,-10.29
2022-12-11T12:42:49.294Z,-10.32
2022-12-11T12:46:32.834Z,-10.35
2022-12-11T12:49:46.875Z,-10.37
2022-12-11T12:52:51.968Z,-10.37
2022-12-11T12:55:56.208Z,-10.42
2022-12-11T12:58:59.420Z,-10.46
2022-12-11T13:02:05.411Z,-10.44
2022-12-11T13:05:31.594Z,-10.47
2022-12-11T13:08:48.964Z,-10.53
2022-12-11T13:11:55.626Z,-10.53
2022-12-11T13:14:58.806Z,-10.57
2022-12-11T13:18:05.192Z,-10.55
2022-12-11T13:21:31.921Z,-10.54
2022-12-11T13:24:35.733Z,-10.52
2022-12-11T13:27:41.418Z,-10.47
2022-12-11T13:30:44.571Z,-10.45
2022-12-11T13:33:51.690Z,-10.40
2022-12-11T13:36:55.507Z,-10.36
2022-12-11T13:39:59.763Z,-10.39
2022-12-11T13:43:06.864Z,-10.31
2022-12-11T13:46:14.238Z,-10.33
2022-12-11T13:49:27.363Z,-10.31
2022-12-11T13:52:33.289Z,-10.24
2022-12-11T13:55:36.354Z,-10.19
2022-12-11T13:58:40.706Z,-10.13
2022-12-11T14:01:43.865Z,-10.08
2022-12-11T14:04:50.459Z,-10.06
2022-12-11T14:07:56.975Z,-10.04
2022-12-11T14:11:00.500Z,-10.02
2022-12-11T14:14:07.059Z,-10.07
2022-12-11T14:17:30.320Z,-10.11
2022-12-11T14:20:35.089Z,-10.09
2022-12-11T14:23:38.836Z,-10.04
2022-12-11T14:26:51.491Z,-10.05
2022-12-11T14:29:55.099Z,-10.05
2022-12-11T14:33:03.724Z,-9.97
2022-12-11T14:36:08.570Z,-10.01
2022-12-11T14:39:25.502Z,-10.05
2022-12-11T14:42:33.506Z,-10.07
2022-12-11T14:45:47.806Z,-10.07
2022-12-11T14:49:02.679Z,-10.01
2022-12-11T14:52:05.849Z,-9.95
2022-12-11T14:55:11.648Z,-10.00
2022-12-11T14:58:27.265Z,-10.01
2022-12-11T15:01:33.597Z,-10.01
2022-12-11T15:04:36.781Z,-9.97
2022-12-11T15:07:42.021Z,-10.00
2022-12-11T15:11:05.575Z,-10.01
2022-12-11T15:14:13.086Z,-10.02
2022-12-11T15:17:16.448Z,-9.95
2022-12-11T15:20:29.037Z,-9.96
2022-12-11T15:23:32.340Z,-9.95
2022-12-11T15:26:47.547Z,-9.97
2022-12-11T15:29:50.760Z,-9.98
2022-12-11T15:33:31.059Z,-9.97
2022-12-11T15:36:37.959Z,-9.96
2022-12-11T15:39:42.068Z,-9.95
2022-12-11T15:42:45.155Z,-9.91
2022-12-11T15:45:48.402Z,-9.86
2022-12-11T15:48:51.749Z,-9.81
2022-12-11T15:51:55.245Z,-9.78
2022-12-11T15:54:58.302Z,-9.79
2022-12-11T15:58:07.715Z,-9.76
2022-12-11T16:01:10.973Z,-9.79
2022-12-11T16:04:14.103Z,-9.77
2022-12-11T16:07:20.654Z,-9.78
2022-12-11T16:10:23.695Z,-9.76
2022-12-11T16:13:27.126Z,-9.76
2022-12-11T16:16:30.186Z,-9.79
2022-12-11T16:19:33.554Z,-9.72
2022-12-11T16:22:37.173Z,-9.75
2022-12-11T16:25:42.498Z,-9.79
2022-12-11T16:28:45.617Z,-9.86
2022-12-11T16:31:49.110Z,-9.88
2022-12-11T16:34:52.278Z,-9.80
2022-12-11T16:37:55.510Z,-9.88
2022-12-11T16:41:02.423Z,-9.91
2022-12-11T16:44:05.941Z,-9.93
2022-12-11T16:47:09.092Z,-9.90
2022-12-11T16:50:15.700Z,-9.95
2022-12-11T16:53:18.864Z,-10.05
2022-12-11T16:56:22.033Z,-10.04
2022-12-11T16:59:25.160Z,-10.05
2022-12-11T17:02:28.827Z,-10.08
2022-12-11T17:05:31.909Z,-10.07
2022-12-11T17:08:35.069Z,-10.05
2022-12-11T17:11:38.376Z,-10.10
2022-12-11T17:14:41.492Z,-10.19
2022-12-11T17:17:44.763Z,-10.23
2022-12-11T17:20:47.918Z,-10.24
2022-12-11T17:23:51.796Z,-10.21
2022-12-11T17:26:56.417Z,-10.27
2022-12-11T17:29:59.515Z,-10.24
2022-12-11T17:33:03.486Z,-10.28
2022-12-11T17:36:08.584Z,-10.28
2022-12-11T17:39:11.704Z,-10.29
2022-12-11T17:42:14.928Z,-10.36
2022-12-11T17:45:18.334Z,-10.44
2022-12-11T17:48:24.699Z,-10.48
2022-12-11T17:51:28.002Z,-10.42
2022-12-11T17:54:31.067Z,-10.45
2022-12-11T17:57:35.071Z,-10.52
2022-12-11T18:00:40.713Z,-10.53
2022-12-11T18:03:43.859Z,-10.73
2022-12-11T18:06:46.930Z,-10.77
2022-12-11T18:09:49.986Z,-10.82
2022-12-11T18:12:53.701Z,-10.84
2022-12-11T18:16:08.865Z,-10.90
2022-12-11T18:19:12.045Z,-11.01
2022-12-11T18:22:15.078Z,-11.09
2022-12-11T18:25:18.584Z,-11.10
2022-12-11T18:28:22.089Z,-11.15
2022-12-11T18:31:25.615Z,-11.18
2022-12-11T18:34:28.764Z,-11.20
2022-12-11T18:37:32.304Z,-11.18
2022-12-11T18:40:36.999Z,-11.25
2022-12-11T18:43:40.233Z,-11.44
2022-12-11T18:46:43.380Z,-11.48
2022-12-11T18:49:46.404Z,-11.54
2022-12-11T18:52:53.975Z,-11.61
2022-12-11T18:56:00.336Z,-11.64
2022-12-11T18:59:05.232Z,-11.69
2022-12-11T19:02:08.576Z,-11.74
2022-12-11T19:05:12.560Z,-11.78
2022-12-11T19:08:16.994Z,-11.76
2022-12-11T19:11:25.176Z,-11.89
2022-12-11T19:14:28.273Z,-11.96
2022-12-11T19:17:31.406Z,-11.97
2022-12-11T19:20:49.162Z,-12.06
2022-12-11T19:23:53.236Z,-12.11
2022-12-11T19:26:56.374Z,-12.14
2022-12-11T19:30:00.886Z,-12.15
2022-12-11T19:33:03.976Z,-12.24
2022-12-11T19:36:10.648Z,-12.28
2022-12-11T19:39:15.000Z,-12.38
2022-12-11T19:42:18.244Z,-12.44
2022-12-11T19:45:21.315Z,-12.45
2022-12-11T19:48:24.327Z,-12.47
2022-12-11T19:51:39.935Z,-12.55
2022-12-11T19:54:43.067Z,-12.60
2022-12-11T19:57:46.347Z,-12.62
2022-12-11T20:00:49.596Z,-12.67
2022-12-11T20:03:58.255Z,-12.76
2022-12-11T20:07:01.320Z,-12.83
2022-12-11T20:10:04.623Z,-12.83
2022-12-11T20:13:07.692Z,-12.85
2022-12-11T20:16:12.127Z,-12.90
2022-12-11T20:19:15.622Z,-12.99
2022-12-11T20:22:18.704Z,-13.01
2022-12-11T20:25:22.322Z,-13.01
2022-12-11T20:28:25.751Z,-13.04
2022-12-11T20:31:28.957Z,-13.03
2022-12-11T20:34:32.175Z,-13.04
2022-12-11T20:37:35.710Z,-13.06
2022-12-11T20:40:41.023Z,-13.08
2022-12-11T20:43:44.561Z,-13.08
2022-12-11T20:46:47.722Z,-13.12
2022-12-11T20:49:52.563Z,-13.19
2022-12-11T20:52:55.581Z,-13.19
2022-12-11T20:55:58.769Z,-13.21
2022-12-11T20:59:01.909Z,-13.22
2022-12-11T21:02:06.163Z,-13.22
2022-12-11T21:05:09.465Z,-13.32
2022-12-11T21:08:13.336Z,-13.39
2022-12-11T21:11:16.487Z,-13.38
2022-12-11T21:14:20.652Z,-13.50
2022-12-11T21:17:23.451Z,-13.59
2022-12-11T21:20:26.707Z,-13.66
2022-12-11T21:23:29.809Z,-13.77
2022-12-11T21:26:32.996Z,-13.75
2022-12-11T21:29:36.436Z,-13.86
2022-12-11T21:32:39.684Z,-13.90
2022-12-11T21:35:42.936Z,-13.91
2022-12-11T21:38:46.941Z,-13.96
2022-12-11T21:41:50.122Z,-13.99
2022-12-11T21:48:16.447Z,-14.10
2022-12-11T21:51:35.733Z,-14.15
2022-12-11T21:54:40.240Z,-14.23
2022-12-11T21:57:43.414Z,-14.17
2022-12-11T22:00:46.722Z,-14.30
2022-12-11T22:03:51.054Z,-14.28
2022-12-11T22:06:54.047Z,-14.22
2022-12-11T22:09:58.622Z,-14.22
2022-12-11T22:13:01.665Z,-14.26
2022-12-11T22:16:05.019Z,-14.20
2022-12-11T22:19:08.075Z,-14.25
2022-12-11T22:22:11.428Z,-14.21
2022-12-11T22:25:15.057Z,-14.19
2022-12-11T22:28:18.513Z,-14.29
2022-12-11T22:31:23.985Z,-14.28
2022-12-11T22:34:27.209Z,-14.27
2022-12-11T22:37:30.356Z,-14.25
2022-12-11T22:40:34.743Z,-14.20
2022-12-11T22:43:38.004Z,-14.24
2022-12-11T22:46:43.124Z,-14.34
2022-12-11T22:49:49.868Z,-14.34
2022-12-11T22:52:52.933Z,-14.44
2022-12-11T22:55:56.034Z,-14.53
2022-12-11T22:58:59.933Z,-14.51
2022-12-11T23:02:03.322Z,-14.43
2022-12-11T23:05:07.122Z,-14.51
2022-12-11T23:08:10.288Z,-14.57
2022-12-11T23:11:16.150Z,-14.58
2022-12-11T23:14:20.215Z,-14.60
2022-12-11T23:17:23.295Z,-14.61
2022-12-11T23:20:26.389Z,-14.61
2022-12-11T23:23:29.852Z,-14.66
2022-12-11T23:26:33.622Z,-14.74
2022-12-11T23:29:36.987Z,-14.74
2022-12-11T23:32:40.124Z,-14.78
2022-12-11T23:35:43.339Z,-14.70
2022-12-11T23:38:52.603Z,-14.79
2022-12-11T23:41:57.587Z,-14.81
2022-12-11T23:45:00.592Z,-14.87
2022-12-11T23:48:03.672Z,-14.83
2022-12-11T23:51:08.294Z,-14.89
2022-12-11T23:54:11.364Z,-14.91
2022-12-11T23:57:14.347Z,-14.92
